createdAt,value
2018-07-23T00:00:26.445Z,99.90
2018-07-23T00:01:29.965Z,99.90
2018-07-23T00:02:34.364Z,99.90
2018-07-23T00:03:37.924Z,99.90
2018-07-23T00:04:41.637Z,99.90
2018-07-23T00:05:45.418Z,99.90
2018-07-23T00:06:48.943Z,99.90
2018-07-23T00:07:53.238Z,99.90
2018-07-23T00:08:57.180Z,99.90
2018-07-23T00:10:00.784Z,99.90
2018-07-23T00:11:05.097Z,99.90
2018-07-23T00:12:08.935Z,99.90
2018-07-23T00:13:15.399Z,99.90
2018-07-23T00:14:20.907Z,99.90
2018-07-23T00:15:24.543Z,99.90
2018-07-23T00:16:28.121Z,99.90
2018-07-23T00:17:32.695Z,99.90
2018-07-23T00:19:39.456Z,99.90
2018-07-23T00:20:43.128Z,99.90
2018-07-23T00:21:47.353Z,99.90
2018-07-23T00:22:50.825Z,99.90
2018-07-23T00:23:54.495Z,99.90
2018-07-23T00:24:58.021Z,99.90
2018-07-23T00:26:02.057Z,99.90
2018-07-23T00:27:05.563Z,99.90
2018-07-23T00:28:09.456Z,99.90
2018-07-23T00:29:15.372Z,99.90
2018-07-23T00:30:19.225Z,99.90
2018-07-23T00:31:22.784Z,99.90
2018-07-23T00:32:26.433Z,99.90
2018-07-23T00:33:29.894Z,99.90
2018-07-23T00:34:33.446Z,99.90
2018-07-23T00:35:36.991Z,99.90
2018-07-23T00:36:40.502Z,99.90
2018-07-23T00:37:44.464Z,99.90
2018-07-23T00:38:47.915Z,99.90
2018-07-23T00:39:51.710Z,99.90
2018-07-23T00:40:55.222Z,99.90
2018-07-23T00:41:58.812Z,99.90
2018-07-23T00:43:02.485Z,99.90
2018-07-23T00:44:06.540Z,99.90
2018-07-23T00:45:11.797Z,99.90
2018-07-23T00:46:15.293Z,99.90
2018-07-23T00:47:19.404Z,99.90
2018-07-23T00:48:22.951Z,99.90
2018-07-23T00:49:26.598Z,99.90
2018-07-23T00:50:30.498Z,99.90
2018-07-23T00:51:35.121Z,99.90
2018-07-23T00:52:39.409Z,99.90
2018-07-23T00:53:42.883Z,99.90
2018-07-23T00:54:46.426Z,99.90
2018-07-23T00:55:50.202Z,99.90
2018-07-23T00:56:53.709Z,99.90
2018-07-23T00:57:57.265Z,99.90
2018-07-23T00:59:00.846Z,99.90
2018-07-23T01:00:04.862Z,99.90
2018-07-23T01:01:08.464Z,99.90
2018-07-23T01:02:13.046Z,99.90
2018-07-23T01:03:16.699Z,99.90
2018-07-23T01:04:20.768Z,99.90
2018-07-23T01:05:24.423Z,99.90
2018-07-23T01:06:27.958Z,99.90
2018-07-23T01:07:31.463Z,99.90
2018-07-23T01:08:35.009Z,99.90
2018-07-23T01:09:38.501Z,99.90
2018-07-23T01:10:42.054Z,99.90
2018-07-23T01:11:45.552Z,99.90
2018-07-23T01:12:49.043Z,99.90
2018-07-23T01:13:52.525Z,99.90
2018-07-23T01:14:55.995Z,99.90
2018-07-23T01:15:59.641Z,99.90
2018-07-23T01:17:03.377Z,99.90
2018-07-23T01:18:07.043Z,99.90
2018-07-23T01:19:10.750Z,99.90
2018-07-23T01:20:14.307Z,99.90
2018-07-23T01:21:17.887Z,99.90
2018-07-23T01:22:21.735Z,99.90
2018-07-23T01:23:25.382Z,99.90
2018-07-23T01:24:28.981Z,99.90
2018-07-23T01:25:32.497Z,99.90
2018-07-23T01:26:36.153Z,99.90
2018-07-23T01:27:39.654Z,99.90
2018-07-23T01:28:43.197Z,99.90
2018-07-23T01:29:46.749Z,99.90
2018-07-23T01:30:50.299Z,99.90
2018-07-23T01:31:53.841Z,99.90
2018-07-23T01:32:57.414Z,99.90
2018-07-23T01:34:01.027Z,99.90
2018-07-23T01:35:04.670Z,99.90
2018-07-23T01:36:08.291Z,99.90
2018-07-23T01:37:11.892Z,99.90
2018-07-23T01:38:15.440Z,99.90
2018-07-23T01:39:18.926Z,99.90
2018-07-23T01:40:22.459Z,99.90
2018-07-23T01:41:26.075Z,99.90
2018-07-23T01:42:29.635Z,99.90
2018-07-23T01:43:33.371Z,99.90
2018-07-23T01:44:37.422Z,99.90
2018-07-23T01:45:40.974Z,99.90
2018-07-23T01:46:44.507Z,99.90
2018-07-23T01:48:51.306Z,99.90
2018-07-23T01:49:54.857Z,99.90
2018-07-23T01:50:58.455Z,99.90
2018-07-23T01:52:02.034Z,99.90
2018-07-23T01:53:05.977Z,99.90
2018-07-23T01:54:09.505Z,99.90
2018-07-23T01:55:13.299Z,99.90
2018-07-23T01:56:16.930Z,99.90
2018-07-23T01:57:20.439Z,99.90
2018-07-23T01:58:23.996Z,99.90
2018-07-23T01:59:27.559Z,99.90
2018-07-23T02:00:31.150Z,99.90
2018-07-23T02:01:34.704Z,99.90
2018-07-23T02:02:38.183Z,99.90
2018-07-23T02:03:42.299Z,99.90
2018-07-23T02:04:45.836Z,99.90
2018-07-23T02:05:49.424Z,99.90
2018-07-23T02:06:52.977Z,99.90
2018-07-23T02:07:56.549Z,99.90
2018-07-23T02:09:00.112Z,99.90
2018-07-23T02:10:03.810Z,99.90
2018-07-23T02:11:07.811Z,99.90
2018-07-23T02:12:11.419Z,99.90
2018-07-23T02:13:15.394Z,99.90
2018-07-23T02:14:18.930Z,99.90
2018-07-23T02:15:22.531Z,99.90
2018-07-23T02:16:26.067Z,99.90
2018-07-23T02:17:29.613Z,99.90
2018-07-23T02:18:33.169Z,99.90
2018-07-23T02:19:36.902Z,99.90
2018-07-23T02:20:40.437Z,99.90
2018-07-23T02:22:47.168Z,99.90
2018-07-23T02:23:50.749Z,99.90
2018-07-23T02:24:54.322Z,99.90
2018-07-23T02:25:57.843Z,99.90
2018-07-23T02:27:01.386Z,99.90
2018-07-23T02:28:04.961Z,99.90
2018-07-23T02:29:08.548Z,99.90
2018-07-23T02:30:12.186Z,99.90
2018-07-23T02:31:16.173Z,99.90
2018-07-23T02:32:19.799Z,99.90
2018-07-23T02:33:23.442Z,99.90
2018-07-23T02:34:26.981Z,99.90
2018-07-23T02:35:30.518Z,99.90
2018-07-23T02:36:34.046Z,99.90
2018-07-23T02:37:37.586Z,99.90
2018-07-23T02:38:41.121Z,99.90
2018-07-23T02:39:44.639Z,99.90
2018-07-23T02:40:48.143Z,99.90
2018-07-23T02:41:51.665Z,99.90
2018-07-23T02:42:55.208Z,99.90
2018-07-23T02:43:58.750Z,99.90
2018-07-23T02:45:02.264Z,99.90
2018-07-23T02:46:06.030Z,99.90
2018-07-23T02:47:10.234Z,99.90
2018-07-23T02:48:13.872Z,99.90
2018-07-23T02:49:17.406Z,99.90
2018-07-23T02:50:20.934Z,99.90
2018-07-23T02:51:24.502Z,99.90
2018-07-23T02:52:28.020Z,99.90
2018-07-23T02:53:31.691Z,99.90
2018-07-23T02:54:35.298Z,99.90
2018-07-23T02:55:38.834Z,99.90
2018-07-23T02:56:42.329Z,99.90
2018-07-23T02:57:45.855Z,99.90
2018-07-23T02:58:49.414Z,99.90
2018-07-23T02:59:52.923Z,99.90
2018-07-23T03:00:56.499Z,99.90
2018-07-23T03:02:00.018Z,99.90
2018-07-23T03:03:03.566Z,99.90
2018-07-23T03:04:07.218Z,99.90
2018-07-23T03:05:11.853Z,99.90
2018-07-23T03:06:15.486Z,99.90
2018-07-23T03:07:19.046Z,99.90
2018-07-23T03:08:22.629Z,99.90
2018-07-23T03:09:26.146Z,99.90
2018-07-23T03:10:29.680Z,99.90
2018-07-23T03:11:33.206Z,99.90
2018-07-23T03:12:36.746Z,99.90
2018-07-23T03:13:40.231Z,99.90
2018-07-23T03:14:43.787Z,99.90
2018-07-23T03:15:47.376Z,99.90
2018-07-23T03:16:50.929Z,99.90
2018-07-23T03:17:54.522Z,99.90
2018-07-23T03:18:58.117Z,99.90
2018-07-23T03:20:01.732Z,99.90
2018-07-23T03:21:05.252Z,99.90
2018-07-23T03:22:08.754Z,99.90
2018-07-23T03:23:12.702Z,99.90
2018-07-23T03:24:16.298Z,99.90
2018-07-23T03:25:19.834Z,99.90
2018-07-23T03:26:23.376Z,99.90
2018-07-23T03:27:26.878Z,99.90
2018-07-23T03:28:30.367Z,99.90
2018-07-23T03:30:37.193Z,99.90
2018-07-23T03:31:40.755Z,99.90
2018-07-23T03:32:44.282Z,99.90
2018-07-23T03:33:47.806Z,99.90
2018-07-23T03:34:51.365Z,99.90
2018-07-23T03:35:54.900Z,99.90
2018-07-23T03:36:58.440Z,99.90
2018-07-23T03:38:02.027Z,99.90
2018-07-23T03:39:08.030Z,99.90
2018-07-23T03:40:11.938Z,99.90
2018-07-23T03:41:15.474Z,99.90
2018-07-23T03:42:19.001Z,99.90
2018-07-23T03:43:22.568Z,99.90
2018-07-23T03:44:26.067Z,99.90
2018-07-23T03:45:29.616Z,99.90
2018-07-23T03:46:33.180Z,99.90
2018-07-23T03:47:36.830Z,99.90
2018-07-23T03:48:40.332Z,99.90
2018-07-23T03:49:43.849Z,99.90
2018-07-23T03:50:47.381Z,99.90
2018-07-23T03:51:50.957Z,99.90
2018-07-23T03:52:54.500Z,99.90
2018-07-23T03:53:58.147Z,99.90
2018-07-23T03:55:02.134Z,99.90
2018-07-23T03:56:06.018Z,99.90
2018-07-23T03:57:10.220Z,99.90
2018-07-23T03:58:13.893Z,99.90
2018-07-23T03:59:17.459Z,99.90
2018-07-23T04:00:21.021Z,99.90
2018-07-23T04:01:24.621Z,99.90
2018-07-23T04:02:28.193Z,99.90
2018-07-23T04:03:31.813Z,99.90
2018-07-23T04:04:35.253Z,99.90
2018-07-23T04:05:38.851Z,99.90
2018-07-23T04:06:42.585Z,99.90
2018-07-23T04:07:46.156Z,99.90
2018-07-23T04:08:49.760Z,99.90
2018-07-23T04:09:53.361Z,99.90
2018-07-23T04:10:56.917Z,99.90
2018-07-23T04:12:00.450Z,99.90
2018-07-23T04:13:04.038Z,99.90
2018-07-23T04:14:07.650Z,99.90
2018-07-23T04:15:11.728Z,99.90
2018-07-23T04:16:15.278Z,99.90
2018-07-23T04:17:18.905Z,99.90
2018-07-23T04:18:22.384Z,99.90
2018-07-23T04:19:25.965Z,99.90
2018-07-23T04:20:29.922Z,99.90
2018-07-23T04:21:33.408Z,99.90
2018-07-23T04:22:37.071Z,99.90
2018-07-23T04:23:40.598Z,99.90
2018-07-23T04:24:44.164Z,99.90
2018-07-23T04:25:47.649Z,99.90
2018-07-23T04:26:51.197Z,99.90
2018-07-23T04:27:54.725Z,99.90
2018-07-23T04:28:58.313Z,99.90
2018-07-23T04:30:01.835Z,99.90
2018-07-23T04:31:05.442Z,99.90
2018-07-23T04:32:08.969Z,99.90
2018-07-23T04:33:12.915Z,99.90
2018-07-23T04:34:16.513Z,99.90
2018-07-23T04:35:20.126Z,99.90
2018-07-23T04:36:23.634Z,99.90
2018-07-23T04:37:27.148Z,99.90
2018-07-23T04:38:30.674Z,99.90
2018-07-23T04:39:34.221Z,99.90
2018-07-23T04:40:37.710Z,99.90
2018-07-23T04:41:41.197Z,99.90
2018-07-23T04:42:45.001Z,99.90
2018-07-23T04:43:48.580Z,99.90
2018-07-23T04:44:52.117Z,99.90
2018-07-23T04:45:55.634Z,99.90
2018-07-23T04:46:59.241Z,99.90
2018-07-23T04:48:02.758Z,99.90
2018-07-23T04:49:06.255Z,99.90
2018-07-23T04:50:09.892Z,99.90
2018-07-23T04:51:14.484Z,99.90
2018-07-23T04:52:18.147Z,99.90
2018-07-23T04:53:21.707Z,99.90
2018-07-23T04:54:25.217Z,99.90
2018-07-23T04:55:28.787Z,99.90
2018-07-23T04:56:32.389Z,99.90
2018-07-23T04:57:35.865Z,99.90
2018-07-23T04:58:39.354Z,99.90
2018-07-23T04:59:43.121Z,99.90
2018-07-23T05:00:46.701Z,99.90
2018-07-23T05:01:50.245Z,99.90
2018-07-23T05:02:53.933Z,99.90
2018-07-23T05:03:57.465Z,99.90
2018-07-23T05:05:01.029Z,99.90
2018-07-23T05:06:04.578Z,99.90
2018-07-23T05:07:08.106Z,99.90
2018-07-23T05:08:12.125Z,99.90
2018-07-23T05:09:15.727Z,99.90
2018-07-23T05:10:19.505Z,99.90
2018-07-23T05:11:23.190Z,99.90
2018-07-23T05:12:26.938Z,99.90
2018-07-23T05:13:30.653Z,99.90
2018-07-23T05:14:34.282Z,99.90
2018-07-23T05:15:38.050Z,99.90
2018-07-23T05:16:41.633Z,99.90
2018-07-23T05:17:45.242Z,99.90
2018-07-23T05:18:49.037Z,99.40
2018-07-23T05:19:52.613Z,99.10
2018-07-23T05:20:56.278Z,98.80
2018-07-23T05:21:59.913Z,98.20
2018-07-23T05:23:03.487Z,97.60
2018-07-23T05:24:07.201Z,97.60
2018-07-23T05:25:12.278Z,97.00
2018-07-23T05:26:15.981Z,96.20
2018-07-23T05:27:19.553Z,95.60
2018-07-23T05:28:23.353Z,94.90
2018-07-23T05:29:26.918Z,94.40
2018-07-23T05:30:30.473Z,93.80
2018-07-23T05:31:34.278Z,93.30
2018-07-23T05:32:37.845Z,93.20
2018-07-23T05:33:41.428Z,93.10
2018-07-23T05:34:45.152Z,92.80
2018-07-23T05:35:48.884Z,92.60
2018-07-23T05:36:52.447Z,92.20
2018-07-23T05:37:55.982Z,92.00
2018-07-23T05:38:59.514Z,91.70
2018-07-23T05:40:03.080Z,91.10
2018-07-23T05:41:06.968Z,91.00
2018-07-23T05:42:10.834Z,90.50
2018-07-23T05:43:15.127Z,90.30
2018-07-23T05:44:18.689Z,89.90
2018-07-23T05:45:22.378Z,89.30
2018-07-23T05:46:26.100Z,87.90
2018-07-23T05:47:29.756Z,87.30
2018-07-23T05:48:33.423Z,86.00
2018-07-23T05:49:37.019Z,85.50
2018-07-23T05:50:40.574Z,84.40
2018-07-23T05:51:44.194Z,83.80
2018-07-23T05:52:47.884Z,83.40
2018-07-23T05:53:51.635Z,82.90
2018-07-23T05:54:55.205Z,82.80
2018-07-23T05:55:58.846Z,82.40
2018-07-23T05:57:02.476Z,82.40
2018-07-23T05:58:05.980Z,81.60
2018-07-23T05:59:09.622Z,81.30
2018-07-23T06:00:13.749Z,80.60
2018-07-23T06:01:17.354Z,79.70
2018-07-23T06:02:20.949Z,79.50
2018-07-23T06:03:24.637Z,78.60
2018-07-23T06:04:28.229Z,78.60
2018-07-23T06:05:31.692Z,78.30
2018-07-23T06:06:35.367Z,77.60
2018-07-23T06:07:39.926Z,77.70
2018-07-23T06:08:44.506Z,77.20
2018-07-23T06:09:48.074Z,76.80
2018-07-23T06:10:52.931Z,76.20
2018-07-23T06:11:56.752Z,75.50
2018-07-23T06:13:00.349Z,74.50
2018-07-23T06:14:04.101Z,73.90
2018-07-23T06:15:08.718Z,73.40
2018-07-23T06:16:16.273Z,72.90
2018-07-23T06:17:20.440Z,72.50
2018-07-23T06:18:23.890Z,71.10
2018-07-23T06:19:27.626Z,71.70
2018-07-23T06:20:31.143Z,70.00
2018-07-23T06:21:34.767Z,69.60
2018-07-23T06:22:38.701Z,69.30
2018-07-23T06:23:42.428Z,68.70
2018-07-23T06:24:46.267Z,68.40
2018-07-23T06:25:50.031Z,68.30
2018-07-23T06:26:53.689Z,67.60
2018-07-23T06:27:57.299Z,68.10
2018-07-23T06:29:00.971Z,67.30
2018-07-23T06:30:07.085Z,67.90
2018-07-23T06:31:11.711Z,67.90
2018-07-23T06:32:17.479Z,67.90
2018-07-23T06:34:27.064Z,66.70
2018-07-23T06:35:30.629Z,66.20
2018-07-23T06:36:34.140Z,65.20
2018-07-23T06:37:38.048Z,64.60
2018-07-23T06:38:42.342Z,63.90
2018-07-23T06:39:46.031Z,63.40
2018-07-23T06:40:49.564Z,62.90
2018-07-23T06:41:53.118Z,62.00
2018-07-23T06:42:56.650Z,60.70
2018-07-23T06:44:00.181Z,60.80
2018-07-23T06:45:03.901Z,61.70
2018-07-23T06:46:07.377Z,61.90
2018-07-23T06:47:13.676Z,61.10
2018-07-23T06:48:18.701Z,61.00
2018-07-23T06:49:22.168Z,60.20
2018-07-23T06:50:26.286Z,60.70
2018-07-23T06:51:30.073Z,60.00
2018-07-23T06:52:33.548Z,60.00
2018-07-23T06:53:37.049Z,59.90
2018-07-23T06:54:40.748Z,59.60
2018-07-23T06:55:44.208Z,59.30
2018-07-23T06:56:47.687Z,59.80
2018-07-23T06:57:51.297Z,59.20
2018-07-23T06:58:55.402Z,58.90
2018-07-23T06:59:58.905Z,59.10
2018-07-23T07:01:02.516Z,58.80
2018-07-23T07:02:06.368Z,58.40
2018-07-23T07:03:10.187Z,57.80
2018-07-23T07:04:14.760Z,57.80
2018-07-23T07:05:18.942Z,57.80
2018-07-23T07:07:25.841Z,57.30
2018-07-23T07:08:29.298Z,56.80
2018-07-23T07:09:32.774Z,56.70
2018-07-23T07:10:36.346Z,56.80
2018-07-23T07:11:39.898Z,57.70
2018-07-23T07:12:43.458Z,57.40
2018-07-23T07:13:47.173Z,58.20
2018-07-23T07:14:50.797Z,59.80
2018-07-23T07:15:54.332Z,59.40
2018-07-23T07:16:58.402Z,59.20
2018-07-23T07:18:01.848Z,58.20
2018-07-23T07:19:05.502Z,58.30
2018-07-23T07:20:09.054Z,57.10
2018-07-23T07:21:13.636Z,57.00
2018-07-23T07:22:18.507Z,56.50
2018-07-23T07:23:22.014Z,56.50
2018-07-23T07:24:25.497Z,55.70
2018-07-23T07:25:28.984Z,55.10
2018-07-23T07:26:33.390Z,54.30
2018-07-23T07:27:36.963Z,53.90
2018-07-23T07:28:40.530Z,53.30
2018-07-23T07:29:44.561Z,53.00
2018-07-23T07:30:48.141Z,52.20
2018-07-23T07:31:51.725Z,51.50
2018-07-23T07:32:55.314Z,51.00
2018-07-23T07:33:58.861Z,51.30
2018-07-23T07:35:02.345Z,51.30
2018-07-23T07:36:06.044Z,50.60
2018-07-23T07:37:09.523Z,50.90
2018-07-23T07:39:19.978Z,51.70
2018-07-23T07:40:23.489Z,51.20
2018-07-23T07:41:26.947Z,51.70
2018-07-23T07:42:30.408Z,52.00
2018-07-23T07:43:34.564Z,51.80
2018-07-23T07:44:38.098Z,51.60
2018-07-23T07:45:41.542Z,51.60
2018-07-23T07:46:45.124Z,50.90
2018-07-23T07:47:48.846Z,51.10
2018-07-23T07:48:52.434Z,51.00
2018-07-23T07:49:55.942Z,50.80
2018-07-23T07:50:59.353Z,51.00
2018-07-23T07:52:03.114Z,50.10
2018-07-23T07:53:06.786Z,50.00
2018-07-23T07:54:10.515Z,49.70
2018-07-23T07:55:14.010Z,50.30
2018-07-23T07:56:18.085Z,51.00
2018-07-23T07:57:21.583Z,51.20
2018-07-23T07:58:25.165Z,50.90
2018-07-23T07:59:28.655Z,50.60
2018-07-23T08:00:32.116Z,50.70
2018-07-23T08:01:36.055Z,50.10
2018-07-23T08:02:39.631Z,50.20
2018-07-23T08:03:43.304Z,49.10
2018-07-23T08:04:46.981Z,48.30
2018-07-23T08:05:50.633Z,48.20
2018-07-23T08:06:54.914Z,48.90
2018-07-23T08:07:58.443Z,49.00
2018-07-23T08:09:02.668Z,49.70
2018-07-23T08:10:06.510Z,49.60
2018-07-23T08:11:10.031Z,50.00
2018-07-23T08:12:16.599Z,50.60
2018-07-23T08:13:23.608Z,50.00
2018-07-23T08:14:27.128Z,49.80
2018-07-23T08:15:30.770Z,50.10
2018-07-23T08:16:34.346Z,49.10
2018-07-23T08:17:37.935Z,49.00
2018-07-23T08:18:41.457Z,49.10
2018-07-23T08:19:45.012Z,49.10
2018-07-23T08:20:48.684Z,49.40
2018-07-23T08:21:53.215Z,50.00
2018-07-23T08:22:56.711Z,50.40
2018-07-23T08:24:00.665Z,48.90
2018-07-23T08:25:04.382Z,49.40
2018-07-23T08:26:07.993Z,49.50
2018-07-23T08:27:14.172Z,50.50
2018-07-23T08:28:17.801Z,50.20
2018-07-23T08:29:21.419Z,49.50
2018-07-23T08:30:25.584Z,48.60
2018-07-23T08:31:30.284Z,48.50
2018-07-23T08:32:33.926Z,48.30
2018-07-23T08:33:37.544Z,48.10
2018-07-23T08:34:41.074Z,47.70
2018-07-23T08:35:45.168Z,48.20
2018-07-23T08:36:48.746Z,49.40
2018-07-23T08:37:52.366Z,50.60
2018-07-23T08:38:55.881Z,50.20
2018-07-23T08:41:02.678Z,49.40
2018-07-23T08:42:06.285Z,47.80
2018-07-23T08:43:10.944Z,47.80
2018-07-23T08:44:19.565Z,46.60
2018-07-23T08:45:23.292Z,45.60
2018-07-23T08:46:27.332Z,44.80
2018-07-23T08:47:30.927Z,45.20
2018-07-23T08:48:34.380Z,45.70
2018-07-23T08:49:38.043Z,45.90
2018-07-23T08:50:41.653Z,46.50
2018-07-23T08:51:45.958Z,46.90
2018-07-23T08:52:49.459Z,45.90
2018-07-23T08:53:53.062Z,45.10
2018-07-23T08:54:56.725Z,44.40
2018-07-23T08:56:00.232Z,45.70
2018-07-23T08:57:03.770Z,46.90
2018-07-23T08:58:07.343Z,46.10
2018-07-23T08:59:13.356Z,45.30
2018-07-23T09:00:20.529Z,45.80
2018-07-23T09:01:24.006Z,46.70
2018-07-23T09:02:27.652Z,45.60
2018-07-23T09:03:31.353Z,45.10
2018-07-23T09:04:34.916Z,44.30
2018-07-23T09:05:38.444Z,43.80
2018-07-23T09:06:41.938Z,43.70
2018-07-23T09:07:45.476Z,43.60
2018-07-23T09:08:49.070Z,44.00
2018-07-23T09:09:52.552Z,43.00
2018-07-23T09:10:56.202Z,43.50
2018-07-23T09:12:00.489Z,43.70
2018-07-23T09:13:04.259Z,43.70
2018-07-23T09:14:08.171Z,43.50
2018-07-23T09:15:13.307Z,43.60
2018-07-23T09:16:18.311Z,43.40
2018-07-23T09:17:22.926Z,43.60
2018-07-23T09:18:26.469Z,44.30
2018-07-23T09:19:30.320Z,43.30
2018-07-23T09:20:33.812Z,43.80
2018-07-23T09:22:40.572Z,44.90
2018-07-23T09:23:44.235Z,44.70
2018-07-23T09:24:47.699Z,44.50
2018-07-23T09:25:52.811Z,44.50
2018-07-23T09:26:56.350Z,44.20
2018-07-23T09:27:59.856Z,44.90
2018-07-23T09:29:04.352Z,45.20
2018-07-23T09:30:12.397Z,46.00
2018-07-23T09:31:18.456Z,47.20
2018-07-23T09:32:22.797Z,47.20
2018-07-23T09:33:26.934Z,48.00
2018-07-23T09:34:31.138Z,48.60
2018-07-23T09:35:36.110Z,48.00
2018-07-23T09:36:39.623Z,47.60
2018-07-23T09:37:43.382Z,47.40
2018-07-23T09:38:46.887Z,47.80
2018-07-23T09:39:50.604Z,48.40
2018-07-23T09:40:54.149Z,48.10
2018-07-23T09:41:57.680Z,49.00
2018-07-23T09:43:01.188Z,49.50
2018-07-23T09:44:04.668Z,49.90
2018-07-23T09:45:08.242Z,50.40
2018-07-23T09:46:13.054Z,50.40
2018-07-23T09:47:17.357Z,50.70
2018-07-23T09:48:21.126Z,50.20
2018-07-23T09:49:26.963Z,50.00
2018-07-23T09:50:31.134Z,50.60
2018-07-23T09:51:37.600Z,51.00
2018-07-23T09:52:41.197Z,50.60
2018-07-23T09:53:44.769Z,50.40
2018-07-23T09:54:48.434Z,51.10
2018-07-23T09:55:52.496Z,51.20
2018-07-23T09:56:55.940Z,51.20
2018-07-23T09:57:59.602Z,51.00
2018-07-23T09:59:03.160Z,52.50
2018-07-23T10:00:06.658Z,53.80
2018-07-23T10:01:12.183Z,54.50
2018-07-23T10:02:21.544Z,55.00
2018-07-23T10:03:25.237Z,56.10
2018-07-23T10:04:28.663Z,56.80
2018-07-23T10:05:32.194Z,56.60
2018-07-23T10:06:35.897Z,56.80
2018-07-23T10:07:39.596Z,57.50
2018-07-23T10:08:43.419Z,57.90
2018-07-23T10:09:47.019Z,56.30
2018-07-23T10:10:50.538Z,56.50
2018-07-23T10:11:54.021Z,57.20
2018-07-23T10:14:00.822Z,56.60
2018-07-23T10:15:04.868Z,57.20
2018-07-23T10:16:08.570Z,57.50
2018-07-23T10:17:13.301Z,58.80
2018-07-23T10:18:19.279Z,58.30
2018-07-23T10:19:25.050Z,59.00
2018-07-23T10:20:28.631Z,59.30
2018-07-23T10:21:32.117Z,59.60
2018-07-23T10:22:35.612Z,60.60
2018-07-23T10:23:39.053Z,61.60
2018-07-23T10:24:42.602Z,63.30
2018-07-23T10:25:46.262Z,65.50
2018-07-23T10:26:50.346Z,66.40
2018-07-23T10:27:54.139Z,66.30
2018-07-23T10:28:57.708Z,65.20
2018-07-23T10:30:01.404Z,64.30
2018-07-23T10:31:04.940Z,63.00
2018-07-23T10:32:08.472Z,62.40
2018-07-23T10:33:13.787Z,63.00
2018-07-23T10:35:26.853Z,66.70
2018-07-23T10:36:30.395Z,67.50
2018-07-23T10:37:33.869Z,68.40
2018-07-23T10:38:37.552Z,69.50
2018-07-23T10:39:41.136Z,69.30
2018-07-23T10:40:44.726Z,69.40
2018-07-23T10:41:48.348Z,70.10
2018-07-23T10:42:52.537Z,70.10
2018-07-23T10:43:56.234Z,69.60
2018-07-23T10:44:59.824Z,69.40
2018-07-23T10:46:03.572Z,68.60
2018-07-23T10:47:07.301Z,69.30
2018-07-23T10:48:14.220Z,69.30
2018-07-23T10:49:19.015Z,68.30
2018-07-23T10:50:28.163Z,67.80
2018-07-23T10:51:31.721Z,68.60
2018-07-23T10:52:35.288Z,69.70
2018-07-23T10:53:39.027Z,70.00
2018-07-23T10:54:42.787Z,69.30
2018-07-23T10:55:46.414Z,69.50
2018-07-23T10:56:50.092Z,69.80
2018-07-23T10:57:53.675Z,70.30
2018-07-23T10:58:58.322Z,70.80
2018-07-23T11:00:01.930Z,70.30
2018-07-23T11:01:05.420Z,71.20
2018-07-23T11:02:08.930Z,71.80
2018-07-23T11:03:15.283Z,72.10
2018-07-23T11:04:18.795Z,71.80
2018-07-23T11:05:23.444Z,72.20
2018-07-23T11:06:26.953Z,73.00
2018-07-23T11:07:30.492Z,73.80
2018-07-23T11:08:34.913Z,73.40
2018-07-23T11:09:38.492Z,74.80
2018-07-23T11:10:41.979Z,76.20
2018-07-23T11:11:45.532Z,76.00
2018-07-23T11:12:49.183Z,74.30
2018-07-23T11:13:52.745Z,73.20
2018-07-23T11:14:56.227Z,73.10
2018-07-23T11:15:59.749Z,73.20
2018-07-23T11:17:03.985Z,73.70
2018-07-23T11:18:07.644Z,73.40
2018-07-23T11:19:11.807Z,73.60
2018-07-23T11:20:16.093Z,73.90
2018-07-23T11:21:23.062Z,72.90
2018-07-23T11:22:28.036Z,72.70
2018-07-23T11:23:33.169Z,72.70
2018-07-23T11:24:36.723Z,73.20
2018-07-23T11:25:41.091Z,72.50
2018-07-23T11:26:44.303Z,72.80
2018-07-23T11:27:47.898Z,72.20
2018-07-23T11:28:51.428Z,72.00
2018-07-23T11:29:55.686Z,73.50
2018-07-23T11:30:59.216Z,72.80
2018-07-23T11:32:02.779Z,72.90
2018-07-23T11:33:06.325Z,72.50
2018-07-23T11:34:18.612Z,71.70
2018-07-23T11:35:22.127Z,71.70
2018-07-23T11:36:27.010Z,70.50
2018-07-23T11:37:30.541Z,71.70
2018-07-23T11:38:34.737Z,71.40
2018-07-23T11:39:38.313Z,70.10
2018-07-23T11:40:41.970Z,69.70
2018-07-23T11:41:45.492Z,69.80
2018-07-23T11:42:49.854Z,70.20
2018-07-23T11:43:53.423Z,70.80
2018-07-23T11:44:57.071Z,71.70
2018-07-23T11:46:00.574Z,73.00
2018-07-23T11:47:05.196Z,73.60
2018-07-23T11:48:08.830Z,73.00
2018-07-23T11:49:14.602Z,72.90
2018-07-23T11:50:24.001Z,72.50
2018-07-23T11:51:27.649Z,74.30
2018-07-23T11:52:31.410Z,72.70
2018-07-23T11:53:34.960Z,72.20
2018-07-23T11:54:38.526Z,72.10
2018-07-23T11:55:42.951Z,72.60
2018-07-23T11:56:46.541Z,72.40
2018-07-23T11:57:50.054Z,72.30
2018-07-23T11:58:53.519Z,71.50
2018-07-23T11:59:57.133Z,72.30
2018-07-23T12:01:01.024Z,71.10
2018-07-23T12:02:04.638Z,70.00
2018-07-23T12:03:08.253Z,69.80
2018-07-23T12:04:15.175Z,70.80
2018-07-23T12:05:20.031Z,71.20
2018-07-23T12:06:36.820Z,71.50
2018-07-23T12:08:01.023Z,71.40
2018-07-23T12:09:07.573Z,72.20
2018-07-23T12:10:21.739Z,71.50
2018-07-23T12:11:51.661Z,70.60
2018-07-23T12:13:30.568Z,69.40
2018-07-23T12:15:05.108Z,70.60
2018-07-23T12:16:42.810Z,69.60
2018-07-23T12:18:13.644Z,68.80
2018-07-23T12:19:42.890Z,70.20
2018-07-23T12:21:07.129Z,71.40
2018-07-23T12:22:39.257Z,70.80
2018-07-23T12:23:45.828Z,69.40
2018-07-23T12:25:08.321Z,70.10
2018-07-23T12:26:38.917Z,71.20
2018-07-23T12:27:59.212Z,71.40
2018-07-23T12:29:06.437Z,71.30
2018-07-23T12:30:39.394Z,72.20
2018-07-23T12:32:18.200Z,70.50
2018-07-23T12:33:28.669Z,70.80
2018-07-23T12:34:32.445Z,70.90
2018-07-23T12:35:41.737Z,71.10
2018-07-23T12:36:45.388Z,70.80
2018-07-23T12:37:49.189Z,70.50
2018-07-23T12:38:55.730Z,69.90
2018-07-23T12:39:59.441Z,68.20
2018-07-23T12:41:02.957Z,68.20
2018-07-23T12:43:10.972Z,68.90
2018-07-23T12:44:18.001Z,69.30
2018-07-23T12:45:21.913Z,70.40
2018-07-23T12:46:25.645Z,70.70
2018-07-23T12:47:30.203Z,71.20
2018-07-23T12:48:33.713Z,71.80
2018-07-23T12:49:37.389Z,71.80
2018-07-23T12:50:41.052Z,72.30
2018-07-23T12:51:44.711Z,72.70
2018-07-23T12:52:48.989Z,73.60
2018-07-23T12:53:52.466Z,73.50
2018-07-23T12:54:56.033Z,73.50
2018-07-23T12:55:59.612Z,73.60
2018-07-23T12:57:03.293Z,74.00
2018-07-23T12:58:06.997Z,73.50
2018-07-23T12:59:10.676Z,73.60
2018-07-23T13:00:15.079Z,73.80
2018-07-23T13:01:18.642Z,74.20
2018-07-23T13:02:22.482Z,74.00
2018-07-23T13:03:26.101Z,74.00
2018-07-23T13:04:29.565Z,74.10
2018-07-23T13:05:33.811Z,74.40
2018-07-23T13:06:37.451Z,74.70
2018-07-23T13:07:41.165Z,74.80
2018-07-23T13:08:45.345Z,74.50
2018-07-23T13:09:48.851Z,73.20
2018-07-23T13:10:52.722Z,73.50
2018-07-23T13:11:56.677Z,73.70
2018-07-23T13:13:00.396Z,73.00
2018-07-23T13:14:03.927Z,73.90
2018-07-23T13:15:07.647Z,73.50
2018-07-23T13:16:11.262Z,73.50
2018-07-23T13:17:14.822Z,73.80
2018-07-23T13:18:18.591Z,74.10
2018-07-23T13:19:22.339Z,74.70
2018-07-23T13:20:25.809Z,74.20
2018-07-23T13:21:29.284Z,74.20
2018-07-23T13:22:32.812Z,74.10
2018-07-23T13:23:36.394Z,74.90
2018-07-23T13:24:39.906Z,75.10
2018-07-23T13:25:43.504Z,74.30
2018-07-23T13:26:47.072Z,74.50
2018-07-23T13:27:50.596Z,75.10
2018-07-23T13:28:54.825Z,74.30
2018-07-23T13:29:58.339Z,74.00
2018-07-23T13:31:02.641Z,72.50
2018-07-23T13:32:06.593Z,72.10
2018-07-23T13:33:10.131Z,71.70
2018-07-23T13:34:13.698Z,72.50
2018-07-23T13:35:18.160Z,72.40
2018-07-23T13:36:21.682Z,73.10
2018-07-23T13:37:25.504Z,73.10
2018-07-23T13:38:29.043Z,73.10
2018-07-23T13:39:33.422Z,74.60
2018-07-23T13:40:36.904Z,74.50
2018-07-23T13:41:40.724Z,74.40
2018-07-23T13:42:44.489Z,73.80
2018-07-23T13:43:48.025Z,75.20
2018-07-23T13:44:51.633Z,75.20
2018-07-23T13:45:55.169Z,75.00
2018-07-23T13:46:58.680Z,75.30
2018-07-23T13:48:02.745Z,75.20
2018-07-23T13:49:06.961Z,75.40
2018-07-23T13:50:14.378Z,75.20
2018-07-23T13:51:17.912Z,76.00
2018-07-23T13:52:21.475Z,76.40
2018-07-23T13:53:25.055Z,76.20
2018-07-23T13:54:28.600Z,76.80
2018-07-23T13:55:32.957Z,76.80
2018-07-23T13:56:36.510Z,77.20
2018-07-23T13:57:40.115Z,76.90
2018-07-23T13:58:43.607Z,76.20
2018-07-23T13:59:47.788Z,76.60
2018-07-23T14:00:52.083Z,76.10
2018-07-23T14:01:55.892Z,76.50